sensor_id;sensor_type;location;lat;lon;timestamp;temperature;humidity
54684;DHT22;40582;53.100;6.686;2023-04-15T00:01:20;6.40;99.90
54684;DHT22;40582;53.100;6.686;2023-04-15T00:03:47;6.30;99.90
54684;DHT22;40582;53.100;6.686;2023-04-15T00:06:13;6.30;99.90
54684;DHT22;40582;53.100;6.686;2023-04-15T00:08:39;6.20;99.90
54684;DHT22;40582;53.100;6.686;2023-04-15T00:11:04;6.20;99.90
54684;DHT22;40582;53.100;6.686;2023-04-15T00:13:33;6.20;99.90
54684;DHT22;40582;53.100;6.686;2023-04-15T00:15:59;6.20;99.90
54684;DHT22;40582;53.100;6.686;2023-04-15T00:18:25;6.20;99.90
54684;DHT22;40582;53.100;6.686;2023-04-15T00:20:51;6.20;99.90
54684;DHT22;40582;53.100;6.686;2023-04-15T00:23:17;6.20;99.90
54684;DHT22;40582;53.100;6.686;2023-04-15T00:25:43;6.20;99.90
54684;DHT22;40582;53.100;6.686;2023-04-15T00:28:09;6.20;99.90
54684;DHT22;40582;53.100;6.686;2023-04-15T00:30:35;6.10;99.90
54684;DHT22;40582;53.100;6.686;2023-04-15T00:33:00;6.10;99.90
54684;DHT22;40582;53.100;6.686;2023-04-15T00:35:29;6.10;99.90
54684;DHT22;40582;53.100;6.686;2023-04-15T00:37:57;6.10;99.90
54684;DHT22;40582;53.100;6.686;2023-04-15T00:40:24;6.00;99.90
54684;DHT22;40582;53.100;6.686;2023-04-15T00:42:51;6.00;99.90
54684;DHT22;40582;53.100;6.686;2023-04-15T00:45:17;6.00;99.90
54684;DHT22;40582;53.100;6.686;2023-04-15T00:47:44;6.00;99.90
54684;DHT22;40582;53.100;6.686;2023-04-15T00:50:11;6.00;99.90
54684;DHT22;40582;53.100;6.686;2023-04-15T00:52:37;6.00;99.90
54684;DHT22;40582;53.100;6.686;2023-04-15T00:55:04;5.90;99.90
54684;DHT22;40582;53.100;6.686;2023-04-15T00:57:30;5.90;99.90
54684;DHT22;40582;53.100;6.686;2023-04-15T00:59:57;5.90;99.90
54684;DHT22;40582;53.100;6.686;2023-04-15T01:02:23;5.80;99.90
54684;DHT22;40582;53.100;6.686;2023-04-15T01:04:49;5.80;99.90
54684;DHT22;40582;53.100;6.686;2023-04-15T01:07:15;5.80;99.90
54684;DHT22;40582;53.100;6.686;2023-04-15T01:09:41;5.80;99.90
54684;DHT22;40582;53.100;6.686;2023-04-15T01:12:09;5.80;99.90
54684;DHT22;40582;53.100;6.686;2023-04-15T01:14:36;5.80;99.90
54684;DHT22;40582;53.100;6.686;2023-04-15T01:17:02;5.70;99.90
54684;DHT22;40582;53.100;6.686;2023-04-15T01:19:28;5.70;99.90
54684;DHT22;40582;53.100;6.686;2023-04-15T01:21:54;5.70;99.90
54684;DHT22;40582;53.100;6.686;2023-04-15T01:24:20;5.60;99.90
54684;DHT22;40582;53.100;6.686;2023-04-15T01:26:45;5.60;99.90
54684;DHT22;40582;53.100;6.686;2023-04-15T01:29:13;5.60;99.90
54684;DHT22;40582;53.100;6.686;2023-04-15T01:31:39;5.50;99.90
54684;DHT22;40582;53.100;6.686;2023-04-15T01:34:05;5.50;99.90
54684;DHT22;40582;53.100;6.686;2023-04-15T01:36:31;5.50;99.90
54684;DHT22;40582;53.100;6.686;2023-04-15T01:38:57;5.50;99.90
54684;DHT22;40582;53.100;6.686;2023-04-15T01:41:26;5.40;99.90
54684;DHT22;40582;53.100;6.686;2023-04-15T01:43:53;5.40;99.90
54684;DHT22;40582;53.100;6.686;2023-04-15T01:46:19;5.40;99.90
54684;DHT22;40582;53.100;6.686;2023-04-15T01:48:45;5.40;99.90
54684;DHT22;40582;53.100;6.686;2023-04-15T01:51:11;5.30;99.90
54684;DHT22;40582;53.100;6.686;2023-04-15T01:53:37;5.40;99.90
54684;DHT22;40582;53.100;6.686;2023-04-15T01:56:03;5.30;99.90
54684;DHT22;40582;53.100;6.686;2023-04-15T01:58:29;5.30;99.90
54684;DHT22;40582;53.100;6.686;2023-04-15T02:00:55;5.30;99.90
54684;DHT22;40582;53.100;6.686;2023-04-15T02:03:21;5.30;99.90
54684;DHT22;40582;53.100;6.686;2023-04-15T02:05:47;5.30;99.90
54684;DHT22;40582;53.100;6.686;2023-04-15T02:08:13;5.30;99.90
54684;DHT22;40582;53.100;6.686;2023-04-15T02:10:39;5.30;99.90
54684;DHT22;40582;53.100;6.686;2023-04-15T02:13:05;5.20;99.90
54684;DHT22;40582;53.100;6.686;2023-04-15T02:15:30;5.20;99.90
54684;DHT22;40582;53.100;6.686;2023-04-15T02:17:56;5.20;99.90
54684;DHT22;40582;53.100;6.686;2023-04-15T02:20:22;5.30;99.90
54684;DHT22;40582;53.100;6.686;2023-04-15T02:22:48;5.10;99.90
54684;DHT22;40582;53.100;6.686;2023-04-15T02:25:14;5.10;99.90
54684;DHT22;40582;53.100;6.686;2023-04-15T02:27:41;5.10;99.90
54684;DHT22;40582;53.100;6.686;2023-04-15T02:30:07;5.10;99.90
54684;DHT22;40582;53.100;6.686;2023-04-15T02:32:33;5.10;99.90
54684;DHT22;40582;53.100;6.686;2023-04-15T02:35:04;5.00;99.90
54684;DHT22;40582;53.100;6.686;2023-04-15T02:37:30;5.00;99.90
54684;DHT22;40582;53.100;6.686;2023-04-15T02:39:56;5.00;99.90
54684;DHT22;40582;53.100;6.686;2023-04-15T02:42:22;5.00;99.90
54684;DHT22;40582;53.100;6.686;2023-04-15T02:44:52;5.00;99.90
54684;DHT22;40582;53.100;6.686;2023-04-15T02:47:19;5.00;99.90
54684;DHT22;40582;53.100;6.686;2023-04-15T02:49:45;4.90;99.90
54684;DHT22;40582;53.100;6.686;2023-04-15T02:52:11;4.90;99.90
54684;DHT22;40582;53.100;6.686;2023-04-15T02:54:36;4.90;99.90
54684;DHT22;40582;53.100;6.686;2023-04-15T02:57:02;4.80;99.90
54684;DHT22;40582;53.100;6.686;2023-04-15T02:59:31;4.80;99.90
54684;DHT22;40582;53.100;6.686;2023-04-15T03:01:56;4.80;99.90
54684;DHT22;40582;53.100;6.686;2023-04-15T03:04:25;4.80;99.90
54684;DHT22;40582;53.100;6.686;2023-04-15T03:06:51;4.70;99.90
54684;DHT22;40582;53.100;6.686;2023-04-15T03:09:17;4.80;99.90
54684;DHT22;40582;53.100;6.686;2023-04-15T03:11:42;4.80;99.90
54684;DHT22;40582;53.100;6.686;2023-04-15T03:14:08;4.80;99.90
54684;DHT22;40582;53.100;6.686;2023-04-15T03:16:34;4.70;99.90
54684;DHT22;40582;53.100;6.686;2023-04-15T03:18:59;4.80;99.90
54684;DHT22;40582;53.100;6.686;2023-04-15T03:21:25;4.70;99.90
54684;DHT22;40582;53.100;6.686;2023-04-15T03:23:52;4.70;99.90
54684;DHT22;40582;53.100;6.686;2023-04-15T03:26:30;4.80;99.90
54684;DHT22;40582;53.100;6.686;2023-04-15T03:28:57;4.90;99.90
54684;DHT22;40582;53.100;6.686;2023-04-15T03:31:23;4.70;99.90
54684;DHT22;40582;53.100;6.686;2023-04-15T03:33:48;4.70;99.90
54684;DHT22;40582;53.100;6.686;2023-04-15T03:36:15;4.70;99.90
54684;DHT22;40582;53.100;6.686;2023-04-15T03:38:41;4.70;99.90
54684;DHT22;40582;53.100;6.686;2023-04-15T03:41:07;4.60;99.90
54684;DHT22;40582;53.100;6.686;2023-04-15T03:43:34;4.60;99.90
54684;DHT22;40582;53.100;6.686;2023-04-15T03:46:00;4.50;99.90
54684;DHT22;40582;53.100;6.686;2023-04-15T03:48:26;4.60;99.90
54684;DHT22;40582;53.100;6.686;2023-04-15T03:50:51;4.60;99.90
54684;DHT22;40582;53.100;6.686;2023-04-15T03:53:17;4.50;99.90
54684;DHT22;40582;53.100;6.686;2023-04-15T03:55:43;4.50;99.90
54684;DHT22;40582;53.100;6.686;2023-04-15T03:58:09;4.40;99.90
54684;DHT22;40582;53.100;6.686;2023-04-15T04:00:38;4.40;99.90
54684;DHT22;40582;53.100;6.686;2023-04-15T04:03:04;4.40;99.90
54684;DHT22;40582;53.100;6.686;2023-04-15T04:05:30;4.40;99.90
54684;DHT22;40582;53.100;6.686;2023-04-15T04:07:56;4.40;99.90
54684;DHT22;40582;53.100;6.686;2023-04-15T04:10:21;4.40;99.90
54684;DHT22;40582;53.100;6.686;2023-04-15T04:12:47;4.30;99.90
54684;DHT22;40582;53.100;6.686;2023-04-15T04:15:13;4.30;99.90
54684;DHT22;40582;53.100;6.686;2023-04-15T04:17:38;4.30;99.90
54684;DHT22;40582;53.100;6.686;2023-04-15T04:20:04;4.20;99.90
54684;DHT22;40582;53.100;6.686;2023-04-15T04:22:31;4.20;99.90
54684;DHT22;40582;53.100;6.686;2023-04-15T04:24:56;4.20;99.90
54684;DHT22;40582;53.100;6.686;2023-04-15T04:27:24;4.20;99.90
54684;DHT22;40582;53.100;6.686;2023-04-15T04:29:50;4.20;99.90
54684;DHT22;40582;53.100;6.686;2023-04-15T04:32:16;4.20;99.90
54684;DHT22;40582;53.100;6.686;2023-04-15T04:34:41;4.40;99.90
54684;DHT22;40582;53.100;6.686;2023-04-15T04:37:07;4.20;99.90
54684;DHT22;40582;53.100;6.686;2023-04-15T04:39:33;4.20;99.90
54684;DHT22;40582;53.100;6.686;2023-04-15T04:41:58;4.20;99.90
54684;DHT22;40582;53.100;6.686;2023-04-15T04:44:25;4.30;99.90
54684;DHT22;40582;53.100;6.686;2023-04-15T04:46:51;4.30;99.90
54684;DHT22;40582;53.100;6.686;2023-04-15T04:49:17;4.30;99.90
54684;DHT22;40582;53.100;6.686;2023-04-15T04:51:42;4.40;99.90
54684;DHT22;40582;53.100;6.686;2023-04-15T04:54:08;4.40;99.90
54684;DHT22;40582;53.100;6.686;2023-04-15T04:56:34;4.40;99.90
54684;DHT22;40582;53.100;6.686;2023-04-15T04:59:00;4.40;99.90
54684;DHT22;40582;53.100;6.686;2023-04-15T05:01:26;4.40;99.90
54684;DHT22;40582;53.100;6.686;2023-04-15T05:03:52;4.40;99.90
54684;DHT22;40582;53.100;6.686;2023-04-15T05:06:18;4.40;99.90
54684;DHT22;40582;53.100;6.686;2023-04-15T05:08:43;4.50;99.90
54684;DHT22;40582;53.100;6.686;2023-04-15T05:11:11;4.50;99.90
54684;DHT22;40582;53.100;6.686;2023-04-15T05:13:37;4.50;99.90
54684;DHT22;40582;53.100;6.686;2023-04-15T05:16:06;4.50;99.90
54684;DHT22;40582;53.100;6.686;2023-04-15T05:18:32;4.60;99.90
54684;DHT22;40582;53.100;6.686;2023-04-15T05:20:58;4.70;99.90
54684;DHT22;40582;53.100;6.686;2023-04-15T05:23:24;4.70;99.90
54684;DHT22;40582;53.100;6.686;2023-04-15T05:25:49;4.80;99.90
54684;DHT22;40582;53.100;6.686;2023-04-15T05:28:15;4.80;99.90
54684;DHT22;40582;53.100;6.686;2023-04-15T05:30:41;4.80;99.90
54684;DHT22;40582;53.100;6.686;2023-04-15T05:33:07;4.90;99.90
54684;DHT22;40582;53.100;6.686;2023-04-15T05:35:33;5.00;99.90
54684;DHT22;40582;53.100;6.686;2023-04-15T05:37:59;5.10;99.90
54684;DHT22;40582;53.100;6.686;2023-04-15T05:40:25;5.50;99.90
54684;DHT22;40582;53.100;6.686;2023-04-15T05:42:51;5.30;99.90
54684;DHT22;40582;53.100;6.686;2023-04-15T05:45:16;5.40;99.90
54684;DHT22;40582;53.100;6.686;2023-04-15T05:47:42;5.60;99.90
54684;DHT22;40582;53.100;6.686;2023-04-15T05:50:08;5.80;99.90
54684;DHT22;40582;53.100;6.686;2023-04-15T05:52:34;5.90;99.90
54684;DHT22;40582;53.100;6.686;2023-04-15T05:54:59;6.10;99.90
54684;DHT22;40582;53.100;6.686;2023-04-15T05:57:25;6.30;99.90
54684;DHT22;40582;53.100;6.686;2023-04-15T05:59:51;6.40;99.90
54684;DHT22;40582;53.100;6.686;2023-04-15T06:02:17;6.50;99.90
54684;DHT22;40582;53.100;6.686;2023-04-15T06:04:43;6.70;99.90
54684;DHT22;40582;53.100;6.686;2023-04-15T06:07:09;6.90;99.90
54684;DHT22;40582;53.100;6.686;2023-04-15T06:09:35;7.00;99.90
54684;DHT22;40582;53.100;6.686;2023-04-15T06:12:00;7.10;99.90
54684;DHT22;40582;53.100;6.686;2023-04-15T06:14:26;7.30;99.90
54684;DHT22;40582;53.100;6.686;2023-04-15T06:16:52;7.50;99.90
54684;DHT22;40582;53.100;6.686;2023-04-15T06:19:18;7.70;99.90
54684;DHT22;40582;53.100;6.686;2023-04-15T06:21:44;7.80;99.90
54684;DHT22;40582;53.100;6.686;2023-04-15T06:24:11;7.90;99.90
54684;DHT22;40582;53.100;6.686;2023-04-15T06:26:36;8.10;99.90
54684;DHT22;40582;53.100;6.686;2023-04-15T06:29:02;8.20;99.90
54684;DHT22;40582;53.100;6.686;2023-04-15T06:31:28;8.30;99.90
54684;DHT22;40582;53.100;6.686;2023-04-15T06:33:54;8.50;99.90
54684;DHT22;40582;53.100;6.686;2023-04-15T06:36:19;8.60;99.90
54684;DHT22;40582;53.100;6.686;2023-04-15T06:38:46;8.70;99.90
54684;DHT22;40582;53.100;6.686;2023-04-15T06:41:12;8.80;99.90
54684;DHT22;40582;53.100;6.686;2023-04-15T06:43:38;8.90;99.90
54684;DHT22;40582;53.100;6.686;2023-04-15T06:46:04;9.00;99.90
54684;DHT22;40582;53.100;6.686;2023-04-15T06:48:30;9.00;99.90
54684;DHT22;40582;53.100;6.686;2023-04-15T06:50:55;9.00;99.90
54684;DHT22;40582;53.100;6.686;2023-04-15T06:53:26;9.00;99.90
54684;DHT22;40582;53.100;6.686;2023-04-15T06:55:52;9.00;99.90
54684;DHT22;40582;53.100;6.686;2023-04-15T06:58:18;9.00;99.90
54684;DHT22;40582;53.100;6.686;2023-04-15T07:00:44;9.00;99.90
54684;DHT22;40582;53.100;6.686;2023-04-15T07:03:11;9.00;99.90
54684;DHT22;40582;53.100;6.686;2023-04-15T07:05:37;9.10;99.90
54684;DHT22;40582;53.100;6.686;2023-04-15T07:08:04;9.10;99.90
54684;DHT22;40582;53.100;6.686;2023-04-15T07:10:30;9.20;99.90
54684;DHT22;40582;53.100;6.686;2023-04-15T07:12:56;9.30;99.90
54684;DHT22;40582;53.100;6.686;2023-04-15T07:15:21;9.40;99.90
54684;DHT22;40582;53.100;6.686;2023-04-15T07:17:48;9.40;99.90
54684;DHT22;40582;53.100;6.686;2023-04-15T07:20:13;9.60;99.90
54684;DHT22;40582;53.100;6.686;2023-04-15T07:22:39;9.60;99.90
54684;DHT22;40582;53.100;6.686;2023-04-15T07:25:05;9.70;99.90
54684;DHT22;40582;53.100;6.686;2023-04-15T07:27:32;9.70;99.90
54684;DHT22;40582;53.100;6.686;2023-04-15T07:29:58;9.70;99.90
54684;DHT22;40582;53.100;6.686;2023-04-15T07:32:23;9.70;99.90
54684;DHT22;40582;53.100;6.686;2023-04-15T07:34:49;9.70;99.90
54684;DHT22;40582;53.100;6.686;2023-04-15T07:37:15;9.70;99.90
54684;DHT22;40582;53.100;6.686;2023-04-15T07:39:40;9.70;99.90
54684;DHT22;40582;53.100;6.686;2023-04-15T07:42:07;9.60;99.90
54684;DHT22;40582;53.100;6.686;2023-04-15T07:44:33;9.60;99.90
54684;DHT22;40582;53.100;6.686;2023-04-15T07:46:58;9.60;99.90
54684;DHT22;40582;53.100;6.686;2023-04-15T07:49:24;9.50;99.90
54684;DHT22;40582;53.100;6.686;2023-04-15T07:51:50;9.50;99.90
54684;DHT22;40582;53.100;6.686;2023-04-15T07:54:16;9.50;99.90
54684;DHT22;40582;53.100;6.686;2023-04-15T07:56:41;9.50;99.90
54684;DHT22;40582;53.100;6.686;2023-04-15T07:59:08;9.50;99.90
54684;DHT22;40582;53.100;6.686;2023-04-15T08:01:34;9.60;99.90
54684;DHT22;40582;53.100;6.686;2023-04-15T08:04:01;9.60;99.90
54684;DHT22;40582;53.100;6.686;2023-04-15T08:06:27;9.80;99.90
54684;DHT22;40582;53.100;6.686;2023-04-15T08:08:53;9.80;99.90
54684;DHT22;40582;53.100;6.686;2023-04-15T08:11:20;9.90;99.90
54684;DHT22;40582;53.100;6.686;2023-04-15T08:13:46;10.10;99.90
54684;DHT22;40582;53.100;6.686;2023-04-15T08:18:48;10.00;99.90
54684;DHT22;40582;53.100;6.686;2023-04-15T08:21:14;9.90;99.90
54684;DHT22;40582;53.100;6.686;2023-04-15T08:23:40;9.80;99.90
54684;DHT22;40582;53.100;6.686;2023-04-15T08:26:07;9.70;99.90
54684;DHT22;40582;53.100;6.686;2023-04-15T08:28:33;9.70;99.90
54684;DHT22;40582;53.100;6.686;2023-04-15T08:30:59;9.70;99.90
54684;DHT22;40582;53.100;6.686;2023-04-15T08:33:25;9.70;99.90
54684;DHT22;40582;53.100;6.686;2023-04-15T08:35:50;9.70;99.90
54684;DHT22;40582;53.100;6.686;2023-04-15T08:38:16;9.70;99.90
54684;DHT22;40582;53.100;6.686;2023-04-15T08:40:43;9.70;99.90
54684;DHT22;40582;53.100;6.686;2023-04-15T08:43:13;9.50;99.90
54684;DHT22;40582;53.100;6.686;2023-04-15T08:45:41;9.50;99.90
54684;DHT22;40582;53.100;6.686;2023-04-15T08:48:09;9.40;99.90
54684;DHT22;40582;53.100;6.686;2023-04-15T08:50:37;9.40;99.90
54684;DHT22;40582;53.100;6.686;2023-04-15T08:53:04;9.30;99.90
54684;DHT22;40582;53.100;6.686;2023-04-15T08:55:32;9.30;99.90
54684;DHT22;40582;53.100;6.686;2023-04-15T08:58:01;9.30;99.90
54684;DHT22;40582;53.100;6.686;2023-04-15T09:00:28;9.30;99.90
54684;DHT22;40582;53.100;6.686;2023-04-15T09:02:55;9.30;99.90
54684;DHT22;40582;53.100;6.686;2023-04-15T09:05:21;9.40;99.90
54684;DHT22;40582;53.100;6.686;2023-04-15T09:07:49;9.50;99.90
54684;DHT22;40582;53.100;6.686;2023-04-15T09:10:15;9.70;99.90
54684;DHT22;40582;53.100;6.686;2023-04-15T09:12:40;10.00;99.90
54684;DHT22;40582;53.100;6.686;2023-04-15T09:15:07;10.40;99.90
54684;DHT22;40582;53.100;6.686;2023-04-15T09:17:44;10.80;99.90
54684;DHT22;40582;53.100;6.686;2023-04-15T09:20:12;11.00;99.90
54684;DHT22;40582;53.100;6.686;2023-04-15T09:22:40;11.00;99.90
54684;DHT22;40582;53.100;6.686;2023-04-15T09:25:26;11.00;99.90
54684;DHT22;40582;53.100;6.686;2023-04-15T09:28:01;10.80;99.90
54684;DHT22;40582;53.100;6.686;2023-04-15T09:30:28;10.80;99.90
54684;DHT22;40582;53.100;6.686;2023-04-15T09:32:59;10.70;99.90
54684;DHT22;40582;53.100;6.686;2023-04-15T09:35:26;10.60;99.90
54684;DHT22;40582;53.100;6.686;2023-04-15T09:38:03;10.60;99.90
54684;DHT22;40582;53.100;6.686;2023-04-15T09:40:36;10.60;99.90
54684;DHT22;40582;53.100;6.686;2023-04-15T09:43:03;10.50;99.90
54684;DHT22;40582;53.100;6.686;2023-04-15T09:45:31;10.60;99.90
54684;DHT22;40582;53.100;6.686;2023-04-15T09:47:58;10.60;99.90
54684;DHT22;40582;53.100;6.686;2023-04-15T09:50:27;10.60;99.90
54684;DHT22;40582;53.100;6.686;2023-04-15T09:52:54;10.60;99.90
54684;DHT22;40582;53.100;6.686;2023-04-15T09:55:20;10.60;99.90
54684;DHT22;40582;53.100;6.686;2023-04-15T09:57:47;10.70;99.90
54684;DHT22;40582;53.100;6.686;2023-04-15T10:00:13;10.70;99.90
54684;DHT22;40582;53.100;6.686;2023-04-15T10:02:40;10.80;99.90
54684;DHT22;40582;53.100;6.686;2023-04-15T10:05:10;10.90;99.90
54684;DHT22;40582;53.100;6.686;2023-04-15T10:07:38;10.90;99.90
54684;DHT22;40582;53.100;6.686;2023-04-15T10:10:06;10.90;99.90
54684;DHT22;40582;53.100;6.686;2023-04-15T10:12:32;10.70;99.90
54684;DHT22;40582;53.100;6.686;2023-04-15T10:15:02;10.70;99.90
54684;DHT22;40582;53.100;6.686;2023-04-15T10:17:29;10.50;99.90
54684;DHT22;40582;53.100;6.686;2023-04-15T10:20:04;10.40;99.90
54684;DHT22;40582;53.100;6.686;2023-04-15T10:22:31;10.30;99.90
54684;DHT22;40582;53.100;6.686;2023-04-15T10:24:58;10.30;99.90
54684;DHT22;40582;53.100;6.686;2023-04-15T10:27:26;10.30;99.90
54684;DHT22;40582;53.100;6.686;2023-04-15T10:29:53;10.30;99.90
54684;DHT22;40582;53.100;6.686;2023-04-15T10:32:21;10.30;99.90
54684;DHT22;40582;53.100;6.686;2023-04-15T10:34:48;10.40;99.90
54684;DHT22;40582;53.100;6.686;2023-04-15T10:37:32;10.40;99.90
54684;DHT22;40582;53.100;6.686;2023-04-15T10:39:58;10.50;99.90
54684;DHT22;40582;53.100;6.686;2023-04-15T10:42:23;10.50;99.90
54684;DHT22;40582;53.100;6.686;2023-04-15T10:44:59;10.50;99.90
54684;DHT22;40582;53.100;6.686;2023-04-15T10:47:24;10.60;99.90
54684;DHT22;40582;53.100;6.686;2023-04-15T10:49:58;10.60;99.90
54684;DHT22;40582;53.100;6.686;2023-04-15T10:52:26;10.60;99.90
54684;DHT22;40582;53.100;6.686;2023-04-15T10:55:18;10.60;99.90
54684;DHT22;40582;53.100;6.686;2023-04-15T10:57:44;10.50;99.90
54684;DHT22;40582;53.100;6.686;2023-04-15T11:00:17;10.40;99.90
54684;DHT22;40582;53.100;6.686;2023-04-15T11:03:05;10.40;99.90
54684;DHT22;40582;53.100;6.686;2023-04-15T11:08:11;10.50;99.90
54684;DHT22;40582;53.100;6.686;2023-04-15T11:13:04;10.50;99.90
54684;DHT22;40582;53.100;6.686;2023-04-15T11:15:39;10.40;99.90
54684;DHT22;40582;53.100;6.686;2023-04-15T11:18:13;10.30;99.90
54684;DHT22;40582;53.100;6.686;2023-04-15T11:20:44;10.30;99.90
54684;DHT22;40582;53.100;6.686;2023-04-15T11:23:10;10.30;99.90
54684;DHT22;40582;53.100;6.686;2023-04-15T11:25:36;10.40;99.90
54684;DHT22;40582;53.100;6.686;2023-04-15T11:28:03;10.50;99.90
54684;DHT22;40582;53.100;6.686;2023-04-15T11:30:34;10.50;99.90
54684;DHT22;40582;53.100;6.686;2023-04-15T11:33:05;10.70;99.90
54684;DHT22;40582;53.100;6.686;2023-04-15T11:35:32;10.80;99.90
54684;DHT22;40582;53.100;6.686;2023-04-15T11:37:57;10.90;99.90
54684;DHT22;40582;53.100;6.686;2023-04-15T11:40:28;11.00;99.90
54684;DHT22;40582;53.100;6.686;2023-04-15T11:43:23;11.00;99.90
54684;DHT22;40582;53.100;6.686;2023-04-15T11:45:57;10.90;99.90
54684;DHT22;40582;53.100;6.686;2023-04-15T11:48:25;11.00;99.90
54684;DHT22;40582;53.100;6.686;2023-04-15T11:50:56;11.10;99.90
54684;DHT22;40582;53.100;6.686;2023-04-15T11:53:23;11.10;99.90
54684;DHT22;40582;53.100;6.686;2023-04-15T11:55:50;11.10;99.90
54684;DHT22;40582;53.100;6.686;2023-04-15T11:58:24;11.30;99.90
54684;DHT22;40582;53.100;6.686;2023-04-15T12:11:13;12.00;99.90
54684;DHT22;40582;53.100;6.686;2023-04-15T12:13:43;12.10;99.90
54684;DHT22;40582;53.100;6.686;2023-04-15T12:16:10;12.20;99.90
54684;DHT22;40582;53.100;6.686;2023-04-15T12:18:38;12.20;99.90
54684;DHT22;40582;53.100;6.686;2023-04-15T12:21:13;12.10;99.90
54684;DHT22;40582;53.100;6.686;2023-04-15T12:23:49;12.00;99.90
54684;DHT22;40582;53.100;6.686;2023-04-15T12:26:28;12.00;99.90
54684;DHT22;40582;53.100;6.686;2023-04-15T12:29:06;11.90;99.90
54684;DHT22;40582;53.100;6.686;2023-04-15T12:31:34;12.00;99.90
54684;DHT22;40582;53.100;6.686;2023-04-15T12:34:00;12.00;99.90
54684;DHT22;40582;53.100;6.686;2023-04-15T12:36:27;12.00;99.90
54684;DHT22;40582;53.100;6.686;2023-04-15T12:38:55;11.80;99.90
54684;DHT22;40582;53.100;6.686;2023-04-15T12:41:21;11.70;99.90
54684;DHT22;40582;53.100;6.686;2023-04-15T12:43:49;11.50;99.90
54684;DHT22;40582;53.100;6.686;2023-04-15T12:46:15;11.30;99.90
54684;DHT22;40582;53.100;6.686;2023-04-15T12:48:41;11.20;99.90
54684;DHT22;40582;53.100;6.686;2023-04-15T12:51:07;11.10;99.90
54684;DHT22;40582;53.100;6.686;2023-04-15T12:53:32;11.10;99.90
54684;DHT22;40582;53.100;6.686;2023-04-15T12:55:59;11.10;99.90
54684;DHT22;40582;53.100;6.686;2023-04-15T12:58:25;11.20;99.90
54684;DHT22;40582;53.100;6.686;2023-04-15T13:00:50;11.10;99.90
54684;DHT22;40582;53.100;6.686;2023-04-15T13:03:16;11.20;99.90
54684;DHT22;40582;53.100;6.686;2023-04-15T13:05:42;11.20;99.90
54684;DHT22;40582;53.100;6.686;2023-04-15T13:08:08;11.10;99.90
54684;DHT22;40582;53.100;6.686;2023-04-15T13:10:34;10.90;99.90
54684;DHT22;40582;53.100;6.686;2023-04-15T13:13:04;10.90;99.90
54684;DHT22;40582;53.100;6.686;2023-04-15T13:15:30;10.70;99.90
54684;DHT22;40582;53.100;6.686;2023-04-15T13:17:56;10.60;99.90
54684;DHT22;40582;53.100;6.686;2023-04-15T13:20:22;10.50;99.90
54684;DHT22;40582;53.100;6.686;2023-04-15T13:22:48;10.50;99.90
54684;DHT22;40582;53.100;6.686;2023-04-15T13:25:13;10.50;99.90
54684;DHT22;40582;53.100;6.686;2023-04-15T13:27:39;10.40;99.90
54684;DHT22;40582;53.100;6.686;2023-04-15T13:30:05;10.30;99.90
54684;DHT22;40582;53.100;6.686;2023-04-15T13:32:32;10.30;99.90
54684;DHT22;40582;53.100;6.686;2023-04-15T13:34:57;10.20;99.90
54684;DHT22;40582;53.100;6.686;2023-04-15T13:37:27;10.20;99.90
54684;DHT22;40582;53.100;6.686;2023-04-15T13:39:54;10.30;99.90
54684;DHT22;40582;53.100;6.686;2023-04-15T13:42:22;10.30;99.90
54684;DHT22;40582;53.100;6.686;2023-04-15T13:44:51;10.40;99.90
54684;DHT22;40582;53.100;6.686;2023-04-15T13:47:19;10.40;99.90
54684;DHT22;40582;53.100;6.686;2023-04-15T13:49:45;10.40;99.90
54684;DHT22;40582;53.100;6.686;2023-04-15T13:52:11;10.40;99.90
54684;DHT22;40582;53.100;6.686;2023-04-15T13:54:37;10.40;99.90
54684;DHT22;40582;53.100;6.686;2023-04-15T13:57:04;10.40;99.90
54684;DHT22;40582;53.100;6.686;2023-04-15T13:59:31;10.40;99.90
54684;DHT22;40582;53.100;6.686;2023-04-15T14:01:57;10.40;99.90
54684;DHT22;40582;53.100;6.686;2023-04-15T14:04:23;10.40;99.90
54684;DHT22;40582;53.100;6.686;2023-04-15T14:06:48;10.30;99.90
54684;DHT22;40582;53.100;6.686;2023-04-15T14:09:15;10.30;99.90
54684;DHT22;40582;53.100;6.686;2023-04-15T14:11:41;10.30;99.90
54684;DHT22;40582;53.100;6.686;2023-04-15T14:14:06;10.20;99.90
54684;DHT22;40582;53.100;6.686;2023-04-15T14:16:32;10.20;99.90
54684;DHT22;40582;53.100;6.686;2023-04-15T14:18:58;10.10;99.90
54684;DHT22;40582;53.100;6.686;2023-04-15T14:21:24;10.10;99.90
54684;DHT22;40582;53.100;6.686;2023-04-15T14:23:54;10.00;99.90
54684;DHT22;40582;53.100;6.686;2023-04-15T14:26:20;10.00;99.90
54684;DHT22;40582;53.100;6.686;2023-04-15T14:28:45;9.90;99.90
54684;DHT22;40582;53.100;6.686;2023-04-15T14:31:13;9.90;99.90
54684;DHT22;40582;53.100;6.686;2023-04-15T14:33:38;9.80;99.90
54684;DHT22;40582;53.100;6.686;2023-04-15T14:36:05;9.80;99.90
54684;DHT22;40582;53.100;6.686;2023-04-15T14:38:33;9.80;99.90
54684;DHT22;40582;53.100;6.686;2023-04-15T14:41:03;9.80;99.90
54684;DHT22;40582;53.100;6.686;2023-04-15T14:43:29;9.80;99.90
54684;DHT22;40582;53.100;6.686;2023-04-15T14:45:55;9.70;99.90
54684;DHT22;40582;53.100;6.686;2023-04-15T14:48:20;9.70;99.90
54684;DHT22;40582;53.100;6.686;2023-04-15T14:50:46;9.60;99.90
54684;DHT22;40582;53.100;6.686;2023-04-15T14:53:12;9.60;99.90
54684;DHT22;40582;53.100;6.686;2023-04-15T14:55:37;9.60;99.90
54684;DHT22;40582;53.100;6.686;2023-04-15T14:58:03;9.50;99.90
54684;DHT22;40582;53.100;6.686;2023-04-15T15:00:29;9.50;99.90
54684;DHT22;40582;53.100;6.686;2023-04-15T15:02:55;9.40;99.90
54684;DHT22;40582;53.100;6.686;2023-04-15T15:05:21;9.40;99.90
54684;DHT22;40582;53.100;6.686;2023-04-15T15:07:46;9.40;99.90
54684;DHT22;40582;53.100;6.686;2023-04-15T15:10:12;9.30;99.90
54684;DHT22;40582;53.100;6.686;2023-04-15T15:12:38;9.30;99.90
54684;DHT22;40582;53.100;6.686;2023-04-15T15:15:04;9.30;99.90
54684;DHT22;40582;53.100;6.686;2023-04-15T15:17:30;9.20;99.90
54684;DHT22;40582;53.100;6.686;2023-04-15T15:19:55;9.20;99.90
54684;DHT22;40582;53.100;6.686;2023-04-15T15:22:21;9.20;99.90
54684;DHT22;40582;53.100;6.686;2023-04-15T15:24:47;9.20;99.90
54684;DHT22;40582;53.100;6.686;2023-04-15T15:27:13;9.20;99.90
54684;DHT22;40582;53.100;6.686;2023-04-15T15:29:39;9.20;99.90
54684;DHT22;40582;53.100;6.686;2023-04-15T15:32:05;9.20;99.90
54684;DHT22;40582;53.100;6.686;2023-04-15T15:34:30;9.20;99.90
54684;DHT22;40582;53.100;6.686;2023-04-15T15:36:56;9.10;99.90
54684;DHT22;40582;53.100;6.686;2023-04-15T15:39:22;9.10;99.90
54684;DHT22;40582;53.100;6.686;2023-04-15T15:41:49;9.10;99.90
54684;DHT22;40582;53.100;6.686;2023-04-15T15:44:26;9.10;99.90
54684;DHT22;40582;53.100;6.686;2023-04-15T15:46:52;9.00;99.90
54684;DHT22;40582;53.100;6.686;2023-04-15T15:49:18;9.00;99.90
54684;DHT22;40582;53.100;6.686;2023-04-15T15:51:44;9.00;99.90
54684;DHT22;40582;53.100;6.686;2023-04-15T15:54:11;9.00;99.90
54684;DHT22;40582;53.100;6.686;2023-04-15T15:56:36;9.00;99.90